Latest Weather Observations for Tunnack

IDT60801

Issued at 5:01 pm EST Sunday 24 May 2015 (issued every 30 minutes, with the page automatically refreshed every 10 minutes)

About weather observations | Map of weather stations | Latest weather observations for TAS | Other Formats
Station Details ID: 094195 Name: TUNNACK FIRE STATION Lat: -42.45 Lon: 147.46 Height: 461.5 m
Data from the previous 72 hours. | See also: Recent months at Tunnack
Date/Time
EST
Temp
°C
App
Temp
°C
Dew
Point
Rel
Hum
%
Delta-T
°C
Wind Press
QNH
hPa
Press
MSL
hPa
Rain
since 9 am
mm
Dir
 
Spd
km/h
Gust
km/h
Spd
kts
Gust
kts
24/05:00pm 4.4 2.8 2.4 87 0.8 CALM 0 0 0 0 1027.5 1028.2 0.2
24/04:30pm 5.0 3.3 2.0 81 1.2 CALM 0 0 0 0 1027.5 1028.2 0.2
24/04:00pm 5.8 3.4 2.1 77 1.5 N 4 7 2 4 1027.6 1028.3 0.2
24/03:30pm 6.3 3.3 2.2 75 1.7 NNW 7 9 4 5 1027.6 1028.3 0.2
24/03:00pm 7.0 3.3 2.5 73 1.9 N 11 11 6 6 1027.4 1028.1 0.2
24/02:30pm 8.4 5.6 2.2 65 2.7 NNW 6 7 3 4 1027.3 1028.0 0.2
24/02:00pm 8.5 6.5 2.1 64 2.7 N 2 6 1 3 1027.5 1028.2 0.2
24/01:30pm 7.9 5.0 1.5 64 2.7 NNW 6 9 3 5 1027.7 1028.4 0.2
24/01:00pm 7.6 4.6 1.9 67 2.4 N 7 11 4 6 1027.8 1028.5 0.2
24/12:30pm 7.4 4.0 1.9 68 2.3 N 9 11 5 6 1027.9 1028.6 0.2
24/12:00pm 7.9 5.2 2.4 68 2.3 N 6 9 3 5 1028.1 1028.8 0.2
24/11:30am 7.5 4.8 2.4 70 2.2 NNW 6 9 3 5 1028.6 1029.3 0.2
24/11:00am 6.6 4.1 3.8 82 1.2 NNW 6 9 3 5 1029.0 1029.7 0.2
24/10:30am 4.9 3.0 4.8 99 0.0 NW 4 6 2 3 1029.1 1029.8 0.2
24/10:00am 3.3 1.9 3.3 100 0.0 CALM 0 0 0 0 1029.2 1029.9 0.2
24/09:30am 0.7 -1.2 0.6 99 0.0 CALM 0 0 0 0 1029.2 1029.9 0.2
24/09:00am -1.2 -3.4 -1.3 99 0.0 CALM 0 0 0 0 1029.2 1029.9 0.0
24/08:30am -2.7 -5.1 -2.8 99 -0.1 CALM 0 0 0 0 1029.0 1029.7 0.0
24/08:00am -2.7 -5.4 -2.8 99 -0.1 SSE 2 6 1 3 1028.9 1029.6 0.0
24/07:30am -2.5 -4.8 -2.6 99 -0.1 CALM 0 0 0 0 1028.7 1029.4 0.0
24/07:00am -2.0 -5.0 -2.1 99 -0.1 SE 4 6 2 3 1028.6 1029.3 0.0
24/06:30am -1.8 -5.2 -1.9 99 0.0 SE 6 7 3 4 1028.3 1029.0 0.0
24/06:00am -2.0 -5.4 -2.1 99 -0.1 WNW 6 9 3 5 1028.3 1029.0 0.0
24/05:30am -0.5 -3.7 -0.6 99 0.0 W 6 9 3 5 1028.2 1028.9 0.0
24/05:00am -0.4 -3.6 -0.5 99 0.0 W 6 9 3 5 1027.8 1028.5 0.0
24/04:30am -0.5 -3.8 -0.9 97 0.1 WNW 6 9 3 5 1027.7 1028.4 0.0
24/04:00am -0.6 -3.2 -1.9 91 0.4 NNW 2 9 1 5 1027.7 1028.4 0.0
24/03:30am 2.1 -1.4 1.1 93 0.4 WNW 9 15 5 8 1027.7 1028.4 0.0
24/03:00am 1.5 -2.9 0.5 93 0.4 WNW 13 17 7 9 1027.9 1028.6 0.0
24/02:30am 2.0 -1.5 1.3 95 0.3 W 9 15 5 8 1028.1 1028.8 0.0
24/02:00am 1.8 -2.0 1.7 99 0.0 NW 11 15 6 8 1028.2 1028.9 0.0
24/01:30am 1.2 -2.4 0.8 97 0.2 WNW 9 13 5 7 1028.1 1028.8 0.0
24/01:00am 1.2 -2.0 0.8 97 0.2 NW 7 11 4 6 1028.2 1028.9 0.0
24/12:30am -0.4 -3.4 -1.7 91 0.4 WNW 4 11 2 6 1028.2 1028.9 0.0
24/12:00am 1.7 -2.3 0.8 94 0.3 WNW 11 13 6 7 1028.2 1028.9 0.0
 
Date/Time
EST
Temp
°C
App
Temp
°C
Dew
Point
Rel
Hum
%
Delta-T
°C
Wind Press
QNH
hPa
Press
MSL
hPa
Rain
since 9 am
mm
Dir
 
Spd
km/h
Gust
km/h
Spd
kts
Gust
kts
23/11:30pm 2.3 -1.2 1.4 94 0.4 WNW 9 11 5 6 1028.2 1028.9 0.0
23/11:00pm 1.5 -2.1 0.3 92 0.5 NW 9 11 5 6 1028.1 1028.8 0.0
23/10:30pm 2.9 -0.5 2.0 94 0.4 WNW 9 11 5 6 1028.0 1028.7 0.0
23/10:00pm 2.8 0.0 1.8 93 0.4 W 6 11 3 6 1028.2 1028.9 0.0
23/09:30pm 2.7 -0.8 1.4 91 0.5 WSW 9 13 5 7 1028.2 1028.9 0.0
23/09:00pm 3.0 -0.8 1.5 90 0.6 WSW 11 15 6 8 1028.3 1029.0 0.0
23/08:30pm 3.3 -0.5 1.8 90 0.6 SW 11 17 6 9 1028.2 1028.9 0.0
23/08:00pm 3.4 -0.5 1.4 87 0.8 WSW 11 15 6 8 1028.5 1029.2 0.0
23/07:30pm 4.1 0.7 1.6 84 1.0 W 9 15 5 8 1028.2 1028.9 0.0
23/07:00pm 4.6 0.0 1.8 82 1.1 W 15 20 8 11 1028.0 1028.7 0.0
23/06:30pm 5.3 1.2 2.0 79 1.4 W 13 20 7 11 1027.8 1028.5 0.0
23/06:00pm 5.5 0.2 1.8 77 1.5 WSW 19 24 10 13 1027.7 1028.4 0.0
23/05:30pm 5.6 1.4 1.7 76 1.6 WSW 13 20 7 11 1027.6 1028.3 0.0
23/05:00pm 6.1 1.9 1.8 74 1.8 WSW 13 19 7 10 1027.6 1028.3 0.0
23/04:30pm 7.4 2.9 2.3 70 2.2 WSW 15 20 8 11 1027.4 1028.1 0.0
23/04:00pm 8.3 4.2 2.5 67 2.5 WSW 13 22 7 12 1027.4 1028.1 0.0
23/03:30pm 8.5 3.1 2.3 65 2.7 WSW 20 30 11 16 1027.3 1028.0 0.0
23/03:00pm 8.7 3.0 2.9 67 2.5 WSW 22 37 12 20 1027.0 1027.7 0.0
23/02:30pm 9.2 4.2 3.4 67 2.6 WSW 19 28 10 15 1026.9 1027.6 0.0
23/02:00pm 9.7 5.1 3.9 67 2.6 WSW 17 28 9 15 1027.0 1027.7 0.0
23/01:30pm 9.5 4.1 2.6 62 3.0 W 20 33 11 18 1027.1 1027.8 0.0
23/01:00pm 9.7 4.4 3.0 63 2.9 WSW 20 30 11 16 1027.2 1027.9 0.0
23/12:30pm 9.9 4.9 3.6 65 2.8 WSW 19 26 10 14 1027.4 1028.1 0.0
23/12:00pm 8.8 3.1 2.8 66 2.6 WSW 22 35 12 19 1027.5 1028.2 0.0
23/11:30am 8.6 2.9 2.8 67 2.5 WSW 22 35 12 19 1027.5 1028.2 0.0
23/11:00am 8.6 2.6 3.4 70 2.3 WSW 24 35 13 19 1027.7 1028.4 0.0
23/10:30am 7.6 2.3 3.1 73 2.0 WSW 20 41 11 22 1027.9 1028.6 0.0
23/10:00am 7.3 2.0 3.2 75 1.8 W 20 30 11 16 1027.9 1028.6 0.0
23/09:30am 6.6 2.3 3.4 80 1.4 W 15 24 8 13 1027.9 1028.6 0.0
23/09:00am 5.5 0.2 2.8 83 1.1 W 20 30 11 16 1027.8 1028.5 0.2
23/08:30am 4.4 0.3 2.4 87 0.8 W 13 22 7 12 1027.7 1028.4 0.0
23/08:00am 3.6 0.8 1.8 88 0.7 SW 6 11 3 6 1027.7 1028.4 0.0
23/07:30am 3.2 0.2 1.7 90 0.6 WSW 7 9 4 5 1027.7 1028.4 0.0
23/07:00am 2.9 0.0 1.6 91 0.5 WSW 6 9 3 5 1027.6 1028.3 0.0
23/06:30am 2.9 0.1 1.9 93 0.4 S 6 7 3 4 1027.4 1028.1 0.0
23/06:00am 2.2 -0.9 1.6 96 0.2 SW 7 15 4 8 1027.1 1027.8 0.0
23/05:30am 1.5 -2.1 0.8 95 0.3 SW 9 17 5 9 1026.9 1027.6 0.0
23/05:00am 2.3 -1.5 1.6 95 0.3 SW 11 17 6 9 1026.7 1027.4 0.0
23/04:30am 2.1 -1.4 1.4 95 0.3 WSW 9 13 5 7 1026.5 1027.1 0.0
23/04:00am 2.9 -1.6 2.3 96 0.2 WSW 15 20 8 11 1026.4 1027.0 0.0
23/03:30am 2.6 -1.5 2.0 96 0.2 WSW 13 17 7 9 1026.5 1027.1 0.0
23/03:00am 2.1 -1.4 1.4 95 0.3 WSW 9 13 5 7 1026.7 1027.4 0.0
23/02:30am 2.4 -1.1 1.5 94 0.4 WSW 9 13 5 7 1026.9 1027.6 0.0
23/02:00am 2.9 -1.3 1.7 92 0.5 WSW 13 15 7 8 1026.9 1027.6 0.0
23/01:30am 3.5 -1.0 2.3 92 0.5 WSW 15 20 8 11 1026.9 1027.6 0.0
23/01:00am 3.4 -0.7 2.2 92 0.5 WSW 13 19 7 10 1026.9 1027.6 0.0
23/12:30am 3.9 -0.9 2.7 92 0.5 WSW 17 22 9 12 1027.0 1027.7 0.0
23/12:00am 4.1 -1.0 2.8 91 0.5 WSW 19 28 10 15 1027.1 1027.8 0.0
 
Date/Time
EST
Temp
°C
App
Temp
°C
Dew
Point
Rel
Hum
%
Delta-T
°C
Wind Press
QNH
hPa
Press
MSL
hPa
Rain
since 9 am
mm
Dir
 
Spd
km/h
Gust
km/h
Spd
kts
Gust
kts
22/11:30pm 4.2 -1.9 2.9 91 0.5 W 24 32 13 17 1027.0 1027.7 0.0
22/11:00pm 4.2 -1.8 3.2 93 0.4 W 24 32 13 17 1027.2 1027.9 0.0
22/10:30pm 3.5 -1.4 2.3 92 0.5 W 17 22 9 12 1027.1 1027.8 0.0
22/10:00pm 3.7 -1.1 2.7 93 0.4 W 17 22 9 12 1027.1 1027.8 0.0
22/09:30pm 3.2 -1.3 2.2 93 0.4 W 15 24 8 13 1026.9 1027.6 0.0
22/09:00pm 3.2 -1.0 1.9 91 0.5 W 13 19 7 10 1026.9 1027.6 0.0
22/08:30pm 2.9 -2.1 1.1 88 0.7 WNW 17 20 9 11 1026.9 1027.6 0.0
22/08:00pm 4.1 -0.1 1.8 85 0.9 W 13 17 7 9 1026.8 1027.5 0.0
22/07:30pm 4.3 -0.3 1.7 83 1.1 W 15 20 8 11 1026.6 1027.2 0.0
22/07:00pm 4.5 -0.1 1.4 80 1.2 W 15 22 8 12 1026.6 1027.2 0.0
22/06:30pm 4.4 -0.2 1.6 82 1.1 W 15 20 8 11 1026.5 1027.1 0.0
22/06:00pm 4.8 1.3 1.5 79 1.3 WSW 9 15 5 8 1026.3 1026.9 0.0
22/05:30pm 5.1 2.0 1.2 76 1.6 W 7 11 4 6 1026.3 1026.9 0.0
22/05:00pm 6.3 1.7 1.8 73 1.9 WSW 15 24 8 13 1025.9 1026.6 0.0
22/04:30pm 7.7 2.5 2.4 69 2.3 WSW 19 30 10 16 1025.7 1026.4 0.0
22/04:00pm 8.4 3.0 2.4 66 2.6 W 20 28 11 15 1025.7 1026.4 0.0
22/03:30pm 9.0 4.1 2.3 63 2.9 W 17 30 9 16 1025.5 1026.2 0.0
22/03:00pm 9.4 4.3 2.9 64 2.8 W 19 32 10 17 1025.4 1026.1 0.0
22/02:30pm 10.0 5.4 3.5 64 2.9 W 17 24 9 13 1025.3 1026.0 0.0
22/02:00pm 9.5 3.4 3.0 64 2.9 W 24 37 13 20 1025.4 1026.1 0.0
22/01:30pm 10.0 5.0 3.7 65 2.8 WSW 19 32 10 17 1025.6 1026.3 0.0
22/01:00pm 9.7 5.4 3.0 63 2.9 WSW 15 26 8 14 1025.7 1026.4 0.0
22/12:30pm 8.6 2.8 2.4 65 2.7 WSW 22 32 12 17 1026.0 1026.7 0.0
22/12:00pm 8.5 2.7 2.5 66 2.6 W 22 35 12 19 1026.5 1027.1 0.0
22/11:30am 8.1 2.3 2.4 67 2.4 WSW 22 33 12 18 1026.9 1027.6 0.0
22/11:00am 7.5 1.7 2.2 69 2.2 WSW 22 37 12 20 1027.4 1028.1 0.0
22/10:30am 6.7 0.8 1.6 70 2.1 WSW 22 35 12 19 1027.5 1028.2 0.0
22/10:00am 6.1 0.6 1.6 73 1.8 WSW 20 32 11 17 1027.5 1028.2 0.0
22/09:30am 5.8 0.9 1.9 76 1.6 WSW 17 32 9 17 1027.4 1028.1 0.0
22/09:00am 5.2 1.0 1.7 78 1.4 WSW 13 20 7 11 1027.4 1028.1 0.0
22/08:30am 4.9 1.1 1.6 79 1.3 W 11 17 6 9 1027.4 1028.1 0.0
22/08:00am 4.6 0.4 1.5 80 1.2 WSW 13 19 7 10 1027.4 1028.1 0.0
22/07:30am 4.5 0.6 1.4 80 1.3 WSW 11 19 6 10 1027.4 1028.1 0.0
22/07:00am 4.5 1.0 1.2 79 1.3 WSW 9 13 5 7 1027.1 1027.8 0.0
22/06:30am 4.5 1.0 1.2 79 1.3 WSW 9 13 5 7 1026.9 1027.6 0.0
22/06:00am 4.5 0.6 1.4 80 1.2 WSW 11 19 6 10 1026.7 1027.4 0.0
22/05:30am 4.5 0.6 1.4 80 1.3 WSW 11 19 6 10 1027.0 1027.7 0.0
22/05:00am 4.6 0.3 1.3 79 1.3 WSW 13 19 7 10 1026.8 1027.5 0.0
22/04:30am 4.6 0.3 1.3 79 1.3 WSW 13 20 7 11 1026.7 1027.4 0.0
22/04:00am 4.6 0.4 1.5 80 1.2 WSW 13 17 7 9 1026.6 1027.2 0.0
22/03:30am 4.8 0.2 1.6 80 1.3 WSW 15 22 8 12 1026.6 1027.2 0.0
22/03:00am 4.8 1.0 1.8 81 1.2 WSW 11 19 6 10 1026.7 1027.4 0.0
22/02:30am 5.0 0.8 1.8 80 1.3 WSW 13 20 7 11 1027.0 1027.7 0.0
22/02:00am 5.1 1.3 1.8 79 1.3 WSW 11 20 6 11 1027.1 1027.8 0.0
22/01:30am 5.1 1.7 1.6 78 1.4 WSW 9 13 5 7 1027.1 1027.8 0.0
22/01:00am 5.1 1.7 1.8 79 1.3 WSW 9 17 5 9 1027.3 1028.0 0.0
22/12:30am 5.3 1.1 1.8 78 1.4 WSW 13 20 7 11 1027.3 1028.0 0.0
22/12:00am 5.3 1.6 2.5 82 1.2 WSW 11 15 6 8 1027.4 1028.1 0.0
 
Date/Time
EST
Temp
°C
App
Temp
°C
Dew
Point
Rel
Hum
%
Delta-T
°C
Wind Press
QNH
hPa
Press
MSL
hPa
Rain
since 9 am
mm
Dir
 
Spd
km/h
Gust
km/h
Spd
kts
Gust
kts
21/11:30pm 5.1 2.0 3.6 90 0.6 W 9 13 5 7 1027.3 1028.0 0.0
21/11:00pm 5.0 2.5 4.6 97 0.2 WSW 7 11 4 6 1027.3 1028.0 0.0
21/10:30pm 4.9 3.4 4.8 99 0.0 SW 2 7 1 4 1027.4 1028.1 0.0
21/10:00pm 4.8 3.2 4.7 99 0.0 SW 2 7 1 4 1027.5 1028.2 0.0
21/09:30pm 4.9 3.7 4.5 97 0.2 CALM 0 0 0 0 1027.5 1028.2 0.0
21/09:00pm 4.8 3.5 4.2 96 0.3 CALM 0 0 0 0 1027.5 1028.2 0.0
21/08:30pm 4.9 3.6 4.0 94 0.4 CALM 0 0 0 0 1027.5 1028.2 0.0
21/08:00pm 5.2 2.7 4.0 92 0.5 SW 6 6 3 3 1027.4 1028.1 0.0
21/07:30pm 5.2 2.7 3.9 91 0.6 WSW 6 7 3 4 1027.2 1027.9 0.0
21/07:00pm 5.4 2.9 3.7 89 0.7 SW 6 7 3 4 1026.9 1027.6 0.0
21/06:30pm 5.5 3.0 3.5 87 0.9 SW 6 9 3 5 1026.7 1027.4 0.0
21/06:00pm 5.7 3.0 3.5 86 0.9 SW 7 9 4 5 1026.5 1027.1 0.0
21/05:30pm 5.9 3.1 3.2 83 1.2 SSW 7 9 4 5 1026.3 1026.9 0.0

Other Formats:

Comma delimited format used in spreadsheet applications
http://www.bom.gov.au/fwo/IDT60801/IDT60801.94960.axf

JavaScript Object Notation format (JSON) in row-major order
http://www.bom.gov.au/fwo/IDT60801/IDT60801.94960.json